sensor_id;sensor_type;location;lat;lon;timestamp;temperature;humidity
25668;DHT22;18003;-33.830;151.202;2023-07-28T00:02:21;14.70;99.90
25668;DHT22;18003;-33.830;151.202;2023-07-28T00:04:51;14.70;99.90
25668;DHT22;18003;-33.830;151.202;2023-07-28T00:07:21;14.70;99.90
25668;DHT22;18003;-33.830;151.202;2023-07-28T00:09:51;14.80;99.90
25668;DHT22;18003;-33.830;151.202;2023-07-28T00:12:22;14.70;99.90
25668;DHT22;18003;-33.830;151.202;2023-07-28T00:14:53;14.80;99.90
25668;DHT22;18003;-33.830;151.202;2023-07-28T00:17:24;14.80;99.90
25668;DHT22;18003;-33.830;151.202;2023-07-28T00:19:54;14.80;99.90
25668;DHT22;18003;-33.830;151.202;2023-07-28T00:22:24;14.80;99.90
25668;DHT22;18003;-33.830;151.202;2023-07-28T00:24:55;14.80;99.90
25668;DHT22;18003;-33.830;151.202;2023-07-28T00:27:25;14.80;99.90
25668;DHT22;18003;-33.830;151.202;2023-07-28T00:29:55;14.80;99.90
25668;DHT22;18003;-33.830;151.202;2023-07-28T00:32:25;14.80;99.90
25668;DHT22;18003;-33.830;151.202;2023-07-28T00:34:55;14.90;99.90
25668;DHT22;18003;-33.830;151.202;2023-07-28T00:37:25;14.90;99.90
25668;DHT22;18003;-33.830;151.202;2023-07-28T00:39:55;14.90;99.90
25668;DHT22;18003;-33.830;151.202;2023-07-28T00:42:29;14.90;99.90
25668;DHT22;18003;-33.830;151.202;2023-07-28T00:44:56;14.50;99.90
25668;DHT22;18003;-33.830;151.202;2023-07-28T00:47:26;14.40;99.90
25668;DHT22;18003;-33.830;151.202;2023-07-28T00:49:57;14.20;99.90
25668;DHT22;18003;-33.830;151.202;2023-07-28T00:52:27;14.10;99.90
25668;DHT22;18003;-33.830;151.202;2023-07-28T00:54:57;14.00;99.90
25668;DHT22;18003;-33.830;151.202;2023-07-28T00:57:32;13.90;99.90
25668;DHT22;18003;-33.830;151.202;2023-07-28T01:00:02;13.90;99.90
25668;DHT22;18003;-33.830;151.202;2023-07-28T01:02:37;13.80;99.90
25668;DHT22;18003;-33.830;151.202;2023-07-28T01:05:03;13.80;99.90
25668;DHT22;18003;-33.830;151.202;2023-07-28T01:10:30;13.70;99.90
25668;DHT22;18003;-33.830;151.202;2023-07-28T01:13:03;13.70;99.90
25668;DHT22;18003;-33.830;151.202;2023-07-28T01:15:33;13.70;99.90
25668;DHT22;18003;-33.830;151.202;2023-07-28T01:18:03;13.70;99.90
25668;DHT22;18003;-33.830;151.202;2023-07-28T01:20:34;13.80;99.90
25668;DHT22;18003;-33.830;151.202;2023-07-28T01:23:29;13.80;99.90
25668;DHT22;18003;-33.830;151.202;2023-07-28T01:26:05;13.80;99.90
25668;DHT22;18003;-33.830;151.202;2023-07-28T01:28:35;13.80;99.90
25668;DHT22;18003;-33.830;151.202;2023-07-28T01:31:06;13.80;99.90
25668;DHT22;18003;-33.830;151.202;2023-07-28T01:33:36;13.80;99.90
25668;DHT22;18003;-33.830;151.202;2023-07-28T01:36:06;13.80;99.90
25668;DHT22;18003;-33.830;151.202;2023-07-28T01:38:37;13.80;99.90
25668;DHT22;18003;-33.830;151.202;2023-07-28T01:41:07;13.80;99.90
25668;DHT22;18003;-33.830;151.202;2023-07-28T01:43:37;13.80;99.90
25668;DHT22;18003;-33.830;151.202;2023-07-28T01:46:07;13.80;99.90
25668;DHT22;18003;-33.830;151.202;2023-07-28T01:48:37;13.80;99.90
25668;DHT22;18003;-33.830;151.202;2023-07-28T01:51:08;13.80;99.90
25668;DHT22;18003;-33.830;151.202;2023-07-28T01:53:38;13.80;99.90
25668;DHT22;18003;-33.830;151.202;2023-07-28T01:56:07;13.90;99.90
25668;DHT22;18003;-33.830;151.202;2023-07-28T01:58:37;13.90;99.90
25668;DHT22;18003;-33.830;151.202;2023-07-28T02:01:07;13.90;99.90
25668;DHT22;18003;-33.830;151.202;2023-07-28T02:03:37;13.90;99.90
25668;DHT22;18003;-33.830;151.202;2023-07-28T02:06:07;14.00;99.90
25668;DHT22;18003;-33.830;151.202;2023-07-28T02:08:37;14.10;99.90
25668;DHT22;18003;-33.830;151.202;2023-07-28T02:11:07;14.10;99.90
25668;DHT22;18003;-33.830;151.202;2023-07-28T02:13:37;14.10;99.90
25668;DHT22;18003;-33.830;151.202;2023-07-28T02:16:08;14.20;99.90
25668;DHT22;18003;-33.830;151.202;2023-07-28T02:18:37;14.30;99.90
25668;DHT22;18003;-33.830;151.202;2023-07-28T02:21:08;14.30;99.90
25668;DHT22;18003;-33.830;151.202;2023-07-28T02:23:38;14.30;99.90
25668;DHT22;18003;-33.830;151.202;2023-07-28T02:26:08;14.20;99.90
25668;DHT22;18003;-33.830;151.202;2023-07-28T02:28:38;14.20;99.90
25668;DHT22;18003;-33.830;151.202;2023-07-28T02:31:08;14.50;99.90
25668;DHT22;18003;-33.830;151.202;2023-07-28T02:33:38;14.90;99.90
25668;DHT22;18003;-33.830;151.202;2023-07-28T02:36:08;15.10;99.90
25668;DHT22;18003;-33.830;151.202;2023-07-28T02:38:38;15.10;99.90
25668;DHT22;18003;-33.830;151.202;2023-07-28T02:41:08;15.20;99.90
25668;DHT22;18003;-33.830;151.202;2023-07-28T02:43:39;15.30;99.90
25668;DHT22;18003;-33.830;151.202;2023-07-28T02:46:09;15.30;99.90
25668;DHT22;18003;-33.830;151.202;2023-07-28T02:48:39;15.30;99.90
25668;DHT22;18003;-33.830;151.202;2023-07-28T02:51:09;15.30;99.90
25668;DHT22;18003;-33.830;151.202;2023-07-28T02:53:39;15.30;99.90
25668;DHT22;18003;-33.830;151.202;2023-07-28T02:56:09;15.30;99.90
25668;DHT22;18003;-33.830;151.202;2023-07-28T02:58:39;15.30;99.90
25668;DHT22;18003;-33.830;151.202;2023-07-28T03:01:09;15.30;99.90
25668;DHT22;18003;-33.830;151.202;2023-07-28T03:03:39;15.30;99.90
25668;DHT22;18003;-33.830;151.202;2023-07-28T03:06:09;15.40;99.90
25668;DHT22;18003;-33.830;151.202;2023-07-28T03:08:39;15.50;99.90
25668;DHT22;18003;-33.830;151.202;2023-07-28T03:11:10;15.50;99.90
25668;DHT22;18003;-33.830;151.202;2023-07-28T03:13:40;15.60;99.90
25668;DHT22;18003;-33.830;151.202;2023-07-28T03:16:10;15.60;99.90
25668;DHT22;18003;-33.830;151.202;2023-07-28T03:18:40;15.50;99.90
25668;DHT22;18003;-33.830;151.202;2023-07-28T03:21:13;15.50;99.90
25668;DHT22;18003;-33.830;151.202;2023-07-28T03:23:44;15.60;99.90
25668;DHT22;18003;-33.830;151.202;2023-07-28T03:26:13;15.50;99.90
25668;DHT22;18003;-33.830;151.202;2023-07-28T03:28:44;15.60;99.90
25668;DHT22;18003;-33.830;151.202;2023-07-28T03:31:14;15.60;99.90
25668;DHT22;18003;-33.830;151.202;2023-07-28T03:33:44;15.60;99.90
25668;DHT22;18003;-33.830;151.202;2023-07-28T03:36:14;15.70;99.90
25668;DHT22;18003;-33.830;151.202;2023-07-28T03:38:44;15.70;99.90
25668;DHT22;18003;-33.830;151.202;2023-07-28T03:41:14;15.60;99.90
25668;DHT22;18003;-33.830;151.202;2023-07-28T03:43:44;15.70;99.90
25668;DHT22;18003;-33.830;151.202;2023-07-28T03:46:15;15.70;99.90
25668;DHT22;18003;-33.830;151.202;2023-07-28T03:48:45;15.80;99.90
25668;DHT22;18003;-33.830;151.202;2023-07-28T03:51:15;15.80;99.90
25668;DHT22;18003;-33.830;151.202;2023-07-28T03:53:45;15.90;99.90
25668;DHT22;18003;-33.830;151.202;2023-07-28T03:56:15;15.80;99.90
25668;DHT22;18003;-33.830;151.202;2023-07-28T03:58:45;15.80;99.90
25668;DHT22;18003;-33.830;151.202;2023-07-28T04:01:15;15.90;99.90
25668;DHT22;18003;-33.830;151.202;2023-07-28T04:03:46;15.90;99.90
25668;DHT22;18003;-33.830;151.202;2023-07-28T04:06:16;15.90;99.90
25668;DHT22;18003;-33.830;151.202;2023-07-28T04:08:46;16.00;99.90
25668;DHT22;18003;-33.830;151.202;2023-07-28T04:11:16;16.00;99.90
25668;DHT22;18003;-33.830;151.202;2023-07-28T04:13:46;16.00;99.90
25668;DHT22;18003;-33.830;151.202;2023-07-28T04:16:16;16.00;99.90
25668;DHT22;18003;-33.830;151.202;2023-07-28T04:18:46;15.90;99.90
25668;DHT22;18003;-33.830;151.202;2023-07-28T04:21:16;16.00;99.90
25668;DHT22;18003;-33.830;151.202;2023-07-28T04:23:46;16.00;99.90
25668;DHT22;18003;-33.830;151.202;2023-07-28T04:26:17;16.00;99.90
25668;DHT22;18003;-33.830;151.202;2023-07-28T04:28:47;16.00;99.90
25668;DHT22;18003;-33.830;151.202;2023-07-28T04:31:17;16.10;99.90
25668;DHT22;18003;-33.830;151.202;2023-07-28T04:33:48;16.10;99.90
25668;DHT22;18003;-33.830;151.202;2023-07-28T04:36:17;16.10;99.90
25668;DHT22;18003;-33.830;151.202;2023-07-28T04:38:47;16.10;99.90
25668;DHT22;18003;-33.830;151.202;2023-07-28T04:41:17;16.20;99.90
25668;DHT22;18003;-33.830;151.202;2023-07-28T04:43:47;16.30;99.90
25668;DHT22;18003;-33.830;151.202;2023-07-28T04:46:17;16.30;99.90
25668;DHT22;18003;-33.830;151.202;2023-07-28T04:48:47;16.30;99.90
25668;DHT22;18003;-33.830;151.202;2023-07-28T04:51:17;16.20;99.90
25668;DHT22;18003;-33.830;151.202;2023-07-28T04:53:48;16.20;99.90
25668;DHT22;18003;-33.830;151.202;2023-07-28T04:56:18;16.10;99.90
25668;DHT22;18003;-33.830;151.202;2023-07-28T04:58:48;16.10;99.90
25668;DHT22;18003;-33.830;151.202;2023-07-28T05:01:18;16.10;99.90
25668;DHT22;18003;-33.830;151.202;2023-07-28T05:03:48;16.10;99.90
25668;DHT22;18003;-33.830;151.202;2023-07-28T05:06:18;16.10;99.90
25668;DHT22;18003;-33.830;151.202;2023-07-28T05:08:48;16.30;99.90
25668;DHT22;18003;-33.830;151.202;2023-07-28T05:11:18;16.30;99.90
25668;DHT22;18003;-33.830;151.202;2023-07-28T05:13:48;16.30;99.90
25668;DHT22;18003;-33.830;151.202;2023-07-28T05:16:18;16.30;99.90
25668;DHT22;18003;-33.830;151.202;2023-07-28T05:18:48;16.30;99.90
25668;DHT22;18003;-33.830;151.202;2023-07-28T05:21:18;16.30;99.90
25668;DHT22;18003;-33.830;151.202;2023-07-28T05:23:48;16.30;99.90
25668;DHT22;18003;-33.830;151.202;2023-07-28T05:26:18;16.30;99.90
25668;DHT22;18003;-33.830;151.202;2023-07-28T05:28:48;16.20;99.90
25668;DHT22;18003;-33.830;151.202;2023-07-28T05:31:18;16.20;99.90
25668;DHT22;18003;-33.830;151.202;2023-07-28T05:33:49;16.20;99.90
25668;DHT22;18003;-33.830;151.202;2023-07-28T05:36:19;16.20;99.90
25668;DHT22;18003;-33.830;151.202;2023-07-28T05:38:49;16.10;99.90
25668;DHT22;18003;-33.830;151.202;2023-07-28T05:41:19;16.10;99.90
25668;DHT22;18003;-33.830;151.202;2023-07-28T05:43:49;16.30;99.90
25668;DHT22;18003;-33.830;151.202;2023-07-28T05:46:19;16.30;99.90
25668;DHT22;18003;-33.830;151.202;2023-07-28T05:48:49;16.10;99.90
25668;DHT22;18003;-33.830;151.202;2023-07-28T05:51:19;15.80;99.90
25668;DHT22;18003;-33.830;151.202;2023-07-28T05:53:49;15.70;99.90
25668;DHT22;18003;-33.830;151.202;2023-07-28T05:56:19;15.70;99.90
25668;DHT22;18003;-33.830;151.202;2023-07-28T05:58:50;15.60;99.90
25668;DHT22;18003;-33.830;151.202;2023-07-28T06:01:20;15.60;99.90
25668;DHT22;18003;-33.830;151.202;2023-07-28T06:03:50;15.50;99.90
25668;DHT22;18003;-33.830;151.202;2023-07-28T06:06:21;15.50;99.90
25668;DHT22;18003;-33.830;151.202;2023-07-28T06:08:51;15.40;99.90
25668;DHT22;18003;-33.830;151.202;2023-07-28T06:11:21;15.30;99.90
25668;DHT22;18003;-33.830;151.202;2023-07-28T06:13:51;15.20;99.90
25668;DHT22;18003;-33.830;151.202;2023-07-28T06:16:21;15.10;99.90
25668;DHT22;18003;-33.830;151.202;2023-07-28T06:18:52;15.00;99.90
25668;DHT22;18003;-33.830;151.202;2023-07-28T06:21:22;15.00;99.90
25668;DHT22;18003;-33.830;151.202;2023-07-28T06:23:52;15.00;99.90
25668;DHT22;18003;-33.830;151.202;2023-07-28T06:26:22;15.00;99.90
25668;DHT22;18003;-33.830;151.202;2023-07-28T06:28:52;15.00;99.90
25668;DHT22;18003;-33.830;151.202;2023-07-28T06:31:22;14.90;99.90
25668;DHT22;18003;-33.830;151.202;2023-07-28T06:33:52;14.90;99.90
25668;DHT22;18003;-33.830;151.202;2023-07-28T06:36:22;14.80;99.90
25668;DHT22;18003;-33.830;151.202;2023-07-28T06:38:52;14.90;99.90
25668;DHT22;18003;-33.830;151.202;2023-07-28T06:41:23;14.90;99.90
25668;DHT22;18003;-33.830;151.202;2023-07-28T06:43:53;14.90;99.90
25668;DHT22;18003;-33.830;151.202;2023-07-28T06:46:23;14.90;99.90
25668;DHT22;18003;-33.830;151.202;2023-07-28T06:48:53;14.90;99.90
25668;DHT22;18003;-33.830;151.202;2023-07-28T06:51:23;15.00;99.90
25668;DHT22;18003;-33.830;151.202;2023-07-28T06:53:53;15.10;99.90
25668;DHT22;18003;-33.830;151.202;2023-07-28T06:56:23;15.10;99.90
25668;DHT22;18003;-33.830;151.202;2023-07-28T06:58:53;15.10;99.90
25668;DHT22;18003;-33.830;151.202;2023-07-28T07:01:23;15.10;99.90
25668;DHT22;18003;-33.830;151.202;2023-07-28T07:03:54;15.00;99.90
25668;DHT22;18003;-33.830;151.202;2023-07-28T07:06:24;14.90;99.90
25668;DHT22;18003;-33.830;151.202;2023-07-28T07:08:54;14.90;99.90
25668;DHT22;18003;-33.830;151.202;2023-07-28T07:11:24;14.90;99.90
25668;DHT22;18003;-33.830;151.202;2023-07-28T07:13:54;14.90;99.90
25668;DHT22;18003;-33.830;151.202;2023-07-28T07:16:24;15.10;99.90
25668;DHT22;18003;-33.830;151.202;2023-07-28T07:18:54;15.30;99.90
25668;DHT22;18003;-33.830;151.202;2023-07-28T07:21:24;15.50;99.90
25668;DHT22;18003;-33.830;151.202;2023-07-28T07:23:54;15.60;99.90
25668;DHT22;18003;-33.830;151.202;2023-07-28T07:26:24;15.70;99.90
25668;DHT22;18003;-33.830;151.202;2023-07-28T07:28:54;15.60;99.90
25668;DHT22;18003;-33.830;151.202;2023-07-28T07:31:24;15.70;99.90
25668;DHT22;18003;-33.830;151.202;2023-07-28T07:33:54;15.70;99.90
25668;DHT22;18003;-33.830;151.202;2023-07-28T07:36:24;15.90;99.90
25668;DHT22;18003;-33.830;151.202;2023-07-28T07:38:54;15.90;99.90
25668;DHT22;18003;-33.830;151.202;2023-07-28T07:41:24;15.80;99.90
25668;DHT22;18003;-33.830;151.202;2023-07-28T07:43:55;15.80;99.90
25668;DHT22;18003;-33.830;151.202;2023-07-28T07:46:25;15.80;99.90
25668;DHT22;18003;-33.830;151.202;2023-07-28T07:48:55;15.80;99.90
25668;DHT22;18003;-33.830;151.202;2023-07-28T07:51:25;15.80;99.90
25668;DHT22;18003;-33.830;151.202;2023-07-28T07:53:55;15.80;99.90
25668;DHT22;18003;-33.830;151.202;2023-07-28T07:56:25;15.80;99.90
25668;DHT22;18003;-33.830;151.202;2023-07-28T07:58:55;15.80;99.90
25668;DHT22;18003;-33.830;151.202;2023-07-28T08:01:25;15.80;99.90
25668;DHT22;18003;-33.830;151.202;2023-07-28T08:03:54;15.80;99.90
25668;DHT22;18003;-33.830;151.202;2023-07-28T08:06:25;15.80;99.90
25668;DHT22;18003;-33.830;151.202;2023-07-28T08:08:55;15.80;99.90
25668;DHT22;18003;-33.830;151.202;2023-07-28T08:11:26;15.80;99.90
25668;DHT22;18003;-33.830;151.202;2023-07-28T08:13:56;15.80;99.90
25668;DHT22;18003;-33.830;151.202;2023-07-28T08:16:26;15.80;99.90
25668;DHT22;18003;-33.830;151.202;2023-07-28T08:18:56;15.80;99.90
25668;DHT22;18003;-33.830;151.202;2023-07-28T08:21:26;15.70;99.90
25668;DHT22;18003;-33.830;151.202;2023-07-28T08:23:56;15.80;99.90
25668;DHT22;18003;-33.830;151.202;2023-07-28T08:26:26;15.80;99.90
25668;DHT22;18003;-33.830;151.202;2023-07-28T08:28:56;15.80;99.90
25668;DHT22;18003;-33.830;151.202;2023-07-28T08:31:26;15.70;99.90
25668;DHT22;18003;-33.830;151.202;2023-07-28T08:33:57;15.70;99.90
25668;DHT22;18003;-33.830;151.202;2023-07-28T08:36:27;15.70;99.90
25668;DHT22;18003;-33.830;151.202;2023-07-28T08:38:57;15.70;99.90
25668;DHT22;18003;-33.830;151.202;2023-07-28T08:41:27;15.70;99.90
25668;DHT22;18003;-33.830;151.202;2023-07-28T08:43:57;15.70;99.90
25668;DHT22;18003;-33.830;151.202;2023-07-28T08:46:27;15.70;99.90
25668;DHT22;18003;-33.830;151.202;2023-07-28T08:48:57;15.70;99.90
25668;DHT22;18003;-33.830;151.202;2023-07-28T08:51:27;15.60;99.90
25668;DHT22;18003;-33.830;151.202;2023-07-28T08:53:57;15.60;99.90
25668;DHT22;18003;-33.830;151.202;2023-07-28T08:56:28;15.60;99.90
25668;DHT22;18003;-33.830;151.202;2023-07-28T08:58:59;15.60;99.90
25668;DHT22;18003;-33.830;151.202;2023-07-28T09:01:29;15.60;99.90
25668;DHT22;18003;-33.830;151.202;2023-07-28T09:03:59;15.60;99.90
25668;DHT22;18003;-33.830;151.202;2023-07-28T09:06:31;15.50;99.90
25668;DHT22;18003;-33.830;151.202;2023-07-28T09:09:02;15.30;99.90
25668;DHT22;18003;-33.830;151.202;2023-07-28T09:11:33;15.20;99.90
25668;DHT22;18003;-33.830;151.202;2023-07-28T09:14:03;15.10;99.90
25668;DHT22;18003;-33.830;151.202;2023-07-28T09:16:34;15.10;99.90
25668;DHT22;18003;-33.830;151.202;2023-07-28T09:19:08;15.10;99.90
25668;DHT22;18003;-33.830;151.202;2023-07-28T09:21:43;15.00;99.90
25668;DHT22;18003;-33.830;151.202;2023-07-28T09:24:15;14.90;99.90
25668;DHT22;18003;-33.830;151.202;2023-07-28T09:26:45;14.70;99.90
25668;DHT22;18003;-33.830;151.202;2023-07-28T09:29:20;14.60;99.90
25668;DHT22;18003;-33.830;151.202;2023-07-28T09:31:50;14.40;99.90
25668;DHT22;18003;-33.830;151.202;2023-07-28T09:34:27;14.40;99.90
25668;DHT22;18003;-33.830;151.202;2023-07-28T09:36:58;14.30;99.90
25668;DHT22;18003;-33.830;151.202;2023-07-28T09:39:28;14.20;99.90
25668;DHT22;18003;-33.830;151.202;2023-07-28T09:42:00;14.20;99.90
25668;DHT22;18003;-33.830;151.202;2023-07-28T09:44:31;14.30;99.90
25668;DHT22;18003;-33.830;151.202;2023-07-28T09:47:01;14.40;99.90
25668;DHT22;18003;-33.830;151.202;2023-07-28T09:49:39;14.40;99.90
25668;DHT22;18003;-33.830;151.202;2023-07-28T09:52:12;14.50;99.90
25668;DHT22;18003;-33.830;151.202;2023-07-28T09:54:44;14.50;99.90
25668;DHT22;18003;-33.830;151.202;2023-07-28T09:57:20;14.50;99.90
25668;DHT22;18003;-33.830;151.202;2023-07-28T09:59:48;14.50;99.90
25668;DHT22;18003;-33.830;151.202;2023-07-28T10:02:20;14.50;99.90
25668;DHT22;18003;-33.830;151.202;2023-07-28T10:04:50;14.60;99.90
25668;DHT22;18003;-33.830;151.202;2023-07-28T10:07:20;14.60;99.90
25668;DHT22;18003;-33.830;151.202;2023-07-28T10:09:52;14.70;99.90
25668;DHT22;18003;-33.830;151.202;2023-07-28T10:12:25;14.70;99.90
25668;DHT22;18003;-33.830;151.202;2023-07-28T10:15:05;14.70;99.90
25668;DHT22;18003;-33.830;151.202;2023-07-28T10:17:35;14.70;99.90
25668;DHT22;18003;-33.830;151.202;2023-07-28T10:20:09;14.60;99.90
25668;DHT22;18003;-33.830;151.202;2023-07-28T10:22:46;14.60;99.90
25668;DHT22;18003;-33.830;151.202;2023-07-28T10:25:26;14.50;99.90
25668;DHT22;18003;-33.830;151.202;2023-07-28T10:27:46;14.50;99.90
25668;DHT22;18003;-33.830;151.202;2023-07-28T10:30:16;14.50;99.90
25668;DHT22;18003;-33.830;151.202;2023-07-28T10:32:49;14.50;99.90
25668;DHT22;18003;-33.830;151.202;2023-07-28T10:35:26;14.40;99.90
25668;DHT22;18003;-33.830;151.202;2023-07-28T10:37:57;14.40;99.90
25668;DHT22;18003;-33.830;151.202;2023-07-28T10:40:36;14.40;99.90
25668;DHT22;18003;-33.830;151.202;2023-07-28T10:43:07;14.50;99.90
25668;DHT22;18003;-33.830;151.202;2023-07-28T10:45:38;14.80;99.90
25668;DHT22;18003;-33.830;151.202;2023-07-28T10:48:08;15.10;99.90
25668;DHT22;18003;-33.830;151.202;2023-07-28T10:50:38;15.20;99.90
25668;DHT22;18003;-33.830;151.202;2023-07-28T10:53:08;15.30;99.90
25668;DHT22;18003;-33.830;151.202;2023-07-28T10:55:40;15.40;99.90
25668;DHT22;18003;-33.830;151.202;2023-07-28T10:58:09;15.50;99.90
25668;DHT22;18003;-33.830;151.202;2023-07-28T11:00:39;15.50;99.90
25668;DHT22;18003;-33.830;151.202;2023-07-28T11:03:10;15.50;99.90
25668;DHT22;18003;-33.830;151.202;2023-07-28T11:05:39;15.50;99.90
25668;DHT22;18003;-33.830;151.202;2023-07-28T11:08:10;15.40;99.90
25668;DHT22;18003;-33.830;151.202;2023-07-28T11:10:42;15.30;99.90
25668;DHT22;18003;-33.830;151.202;2023-07-28T11:13:13;15.40;99.90
25668;DHT22;18003;-33.830;151.202;2023-07-28T11:15:43;15.50;99.90
25668;DHT22;18003;-33.830;151.202;2023-07-28T11:18:15;15.70;99.90
25668;DHT22;18003;-33.830;151.202;2023-07-28T11:20:45;15.80;99.90
25668;DHT22;18003;-33.830;151.202;2023-07-28T11:23:15;15.90;99.90
25668;DHT22;18003;-33.830;151.202;2023-07-28T11:25:45;16.00;99.90
25668;DHT22;18003;-33.830;151.202;2023-07-28T11:28:16;16.00;99.90
25668;DHT22;18003;-33.830;151.202;2023-07-28T11:30:46;16.00;99.90
25668;DHT22;18003;-33.830;151.202;2023-07-28T11:33:16;16.10;99.90
25668;DHT22;18003;-33.830;151.202;2023-07-28T11:35:46;16.10;99.90
25668;DHT22;18003;-33.830;151.202;2023-07-28T11:38:16;16.10;99.90
25668;DHT22;18003;-33.830;151.202;2023-07-28T11:40:46;16.10;99.90
25668;DHT22;18003;-33.830;151.202;2023-07-28T11:43:16;16.20;99.90
25668;DHT22;18003;-33.830;151.202;2023-07-28T11:45:47;16.10;99.90
25668;DHT22;18003;-33.830;151.202;2023-07-28T11:48:17;16.20;99.90
25668;DHT22;18003;-33.830;151.202;2023-07-28T11:50:46;16.20;99.90
25668;DHT22;18003;-33.830;151.202;2023-07-28T11:53:17;16.10;99.90
25668;DHT22;18003;-33.830;151.202;2023-07-28T11:55:48;16.10;99.90
25668;DHT22;18003;-33.830;151.202;2023-07-28T11:58:18;16.10;99.90
25668;DHT22;18003;-33.830;151.202;2023-07-28T12:00:50;16.20;99.90
25668;DHT22;18003;-33.830;151.202;2023-07-28T12:03:20;16.10;99.90
25668;DHT22;18003;-33.830;151.202;2023-07-28T12:06:04;16.10;99.90
25668;DHT22;18003;-33.830;151.202;2023-07-28T12:08:40;16.10;99.90
25668;DHT22;18003;-33.830;151.202;2023-07-28T12:11:14;16.20;99.90
25668;DHT22;18003;-33.830;151.202;2023-07-28T12:13:49;16.10;99.90
25668;DHT22;18003;-33.830;151.202;2023-07-28T12:16:40;16.10;99.90
25668;DHT22;18003;-33.830;151.202;2023-07-28T12:19:10;16.10;99.90
25668;DHT22;18003;-33.830;151.202;2023-07-28T12:21:40;16.10;99.90
25668;DHT22;18003;-33.830;151.202;2023-07-28T12:24:10;16.10;99.90
25668;DHT22;18003;-33.830;151.202;2023-07-28T12:26:40;16.10;99.90
25668;DHT22;18003;-33.830;151.202;2023-07-28T12:29:10;16.10;99.90
25668;DHT22;18003;-33.830;151.202;2023-07-28T12:31:39;16.10;99.90
25668;DHT22;18003;-33.830;151.202;2023-07-28T12:34:09;16.10;99.90
25668;DHT22;18003;-33.830;151.202;2023-07-28T12:36:39;16.10;99.90
25668;DHT22;18003;-33.830;151.202;2023-07-28T12:39:09;16.10;99.90
25668;DHT22;18003;-33.830;151.202;2023-07-28T12:41:39;16.10;99.90
25668;DHT22;18003;-33.830;151.202;2023-07-28T12:44:09;16.10;99.90
25668;DHT22;18003;-33.830;151.202;2023-07-28T12:46:40;16.10;99.90
25668;DHT22;18003;-33.830;151.202;2023-07-28T12:49:10;16.10;99.90
25668;DHT22;18003;-33.830;151.202;2023-07-28T12:51:40;16.10;99.90
25668;DHT22;18003;-33.830;151.202;2023-07-28T12:54:09;16.10;99.90
25668;DHT22;18003;-33.830;151.202;2023-07-28T12:56:39;16.10;99.90
25668;DHT22;18003;-33.830;151.202;2023-07-28T12:59:09;16.00;99.90
25668;DHT22;18003;-33.830;151.202;2023-07-28T13:01:39;16.00;99.90
25668;DHT22;18003;-33.830;151.202;2023-07-28T13:04:09;16.00;99.90
25668;DHT22;18003;-33.830;151.202;2023-07-28T13:06:39;16.00;99.90
25668;DHT22;18003;-33.830;151.202;2023-07-28T13:09:10;16.00;99.90
25668;DHT22;18003;-33.830;151.202;2023-07-28T13:11:40;16.00;99.90
25668;DHT22;18003;-33.830;151.202;2023-07-28T13:14:10;16.00;99.90
25668;DHT22;18003;-33.830;151.202;2023-07-28T13:16:40;16.00;99.90
25668;DHT22;18003;-33.830;151.202;2023-07-28T13:19:10;16.00;99.90
25668;DHT22;18003;-33.830;151.202;2023-07-28T13:21:40;16.00;99.90
25668;DHT22;18003;-33.830;151.202;2023-07-28T13:24:10;16.00;99.90
25668;DHT22;18003;-33.830;151.202;2023-07-28T13:26:40;16.00;99.90
25668;DHT22;18003;-33.830;151.202;2023-07-28T13:29:10;16.00;99.90
25668;DHT22;18003;-33.830;151.202;2023-07-28T13:31:41;15.90;99.90
25668;DHT22;18003;-33.830;151.202;2023-07-28T13:34:11;15.90;99.90
25668;DHT22;18003;-33.830;151.202;2023-07-28T13:36:41;15.90;99.90
25668;DHT22;18003;-33.830;151.202;2023-07-28T13:39:11;15.90;99.90
25668;DHT22;18003;-33.830;151.202;2023-07-28T13:41:41;15.90;99.90
25668;DHT22;18003;-33.830;151.202;2023-07-28T13:44:11;15.90;99.90
25668;DHT22;18003;-33.830;151.202;2023-07-28T13:46:41;15.80;99.90
25668;DHT22;18003;-33.830;151.202;2023-07-28T13:49:12;15.80;99.90
25668;DHT22;18003;-33.830;151.202;2023-07-28T13:51:41;15.90;99.90
25668;DHT22;18003;-33.830;151.202;2023-07-28T13:54:11;15.90;99.90
25668;DHT22;18003;-33.830;151.202;2023-07-28T13:56:41;15.80;99.90
25668;DHT22;18003;-33.830;151.202;2023-07-28T13:59:12;15.80;99.90
25668;DHT22;18003;-33.830;151.202;2023-07-28T14:01:42;15.80;99.90
25668;DHT22;18003;-33.830;151.202;2023-07-28T14:04:12;15.90;99.90
25668;DHT22;18003;-33.830;151.202;2023-07-28T14:06:42;15.80;99.90
25668;DHT22;18003;-33.830;151.202;2023-07-28T14:09:12;15.80;99.90
25668;DHT22;18003;-33.830;151.202;2023-07-28T14:11:42;15.80;99.90
25668;DHT22;18003;-33.830;151.202;2023-07-28T14:14:12;15.80;99.90
25668;DHT22;18003;-33.830;151.202;2023-07-28T14:16:42;15.80;99.90
25668;DHT22;18003;-33.830;151.202;2023-07-28T14:19:13;15.80;99.90
25668;DHT22;18003;-33.830;151.202;2023-07-28T14:21:43;15.80;99.90
25668;DHT22;18003;-33.830;151.202;2023-07-28T14:24:13;15.80;99.90
25668;DHT22;18003;-33.830;151.202;2023-07-28T14:26:43;15.80;99.90
25668;DHT22;18003;-33.830;151.202;2023-07-28T14:29:14;15.80;99.90
25668;DHT22;18003;-33.830;151.202;2023-07-28T14:31:44;15.80;99.90
25668;DHT22;18003;-33.830;151.202;2023-07-28T14:34:14;15.80;99.90
25668;DHT22;18003;-33.830;151.202;2023-07-28T14:36:44;15.80;99.90
25668;DHT22;18003;-33.830;151.202;2023-07-28T14:39:14;15.70;99.90
25668;DHT22;18003;-33.830;151.202;2023-07-28T14:41:44;15.70;99.90
25668;DHT22;18003;-33.830;151.202;2023-07-28T14:44:14;15.70;99.90
25668;DHT22;18003;-33.830;151.202;2023-07-28T14:46:44;15.70;99.90
25668;DHT22;18003;-33.830;151.202;2023-07-28T14:49:14;15.70;99.90
25668;DHT22;18003;-33.830;151.202;2023-07-28T14:51:45;15.70;99.90
25668;DHT22;18003;-33.830;151.202;2023-07-28T14:54:15;15.70;99.90
25668;DHT22;18003;-33.830;151.202;2023-07-28T14:56:45;15.70;99.90
25668;DHT22;18003;-33.830;151.202;2023-07-28T14:59:15;15.70;99.90
25668;DHT22;18003;-33.830;151.202;2023-07-28T15:01:46;15.70;99.90
25668;DHT22;18003;-33.830;151.202;2023-07-28T15:04:16;15.70;99.90
25668;DHT22;18003;-33.830;151.202;2023-07-28T15:06:46;15.70;99.90
25668;DHT22;18003;-33.830;151.202;2023-07-28T15:09:16;15.70;99.90
25668;DHT22;18003;-33.830;151.202;2023-07-28T15:11:47;15.70;99.90